createdAt,value
2019-02-14T00:00:22.617Z,-0.40
2019-02-14T00:02:52.863Z,-0.40
2019-02-14T00:05:23.383Z,-0.50
2019-02-14T00:07:52.747Z,-0.50
2019-02-14T00:10:22.813Z,-0.50
2019-02-14T00:12:52.580Z,-0.60
2019-02-14T00:15:22.707Z,-0.50
2019-02-14T00:17:53.360Z,-0.40
2019-02-14T00:20:22.822Z,-0.40
2019-02-14T00:22:52.949Z,-0.50
2019-02-14T00:25:23.121Z,-0.50
2019-02-14T00:27:52.879Z,-0.40
2019-02-14T00:30:22.797Z,-0.50
2019-02-14T00:32:52.699Z,-0.40
2019-02-14T00:35:25.078Z,-0.40
2019-02-14T00:37:55.055Z,-0.20
2019-02-14T00:40:25.343Z,-0.20
2019-02-14T00:42:55.443Z,-0.20
2019-02-14T00:45:25.541Z,-0.30
2019-02-14T00:47:55.731Z,-0.30
2019-02-14T00:50:25.674Z,-0.30
2019-02-14T00:52:55.750Z,-0.30
2019-02-14T00:55:25.614Z,-0.10
2019-02-14T00:57:55.361Z,-0.10
2019-02-14T01:00:25.594Z,-0.20
2019-02-14T01:02:55.427Z,-0.20
2019-02-14T01:05:33.097Z,-0.10
2019-02-14T01:07:57.379Z,-0.10
2019-02-14T01:10:27.126Z,0.00
2019-02-14T01:12:57.242Z,0.00
2019-02-14T01:15:27.793Z,0.00
2019-02-14T01:17:57.647Z,0.00
2019-02-14T01:20:27.184Z,-0.20
2019-02-14T01:22:56.967Z,-0.30
2019-02-14T01:25:27.364Z,-0.40
2019-02-14T01:27:57.583Z,-0.50
2019-02-14T01:30:27.405Z,-0.40
2019-02-14T01:32:56.890Z,-0.40
2019-02-14T01:35:28.099Z,-0.40
2019-02-14T01:37:58.736Z,-0.40
2019-02-14T01:40:28.846Z,-0.50
2019-02-14T01:42:59.021Z,-0.40
2019-02-14T01:45:28.836Z,-0.50
2019-02-14T01:47:59.163Z,-0.50
2019-02-14T01:50:29.618Z,-0.50
2019-02-14T01:52:59.559Z,-0.30
2019-02-14T01:55:30.051Z,-0.20
2019-02-14T01:58:00.136Z,-0.10
2019-02-14T02:00:30.288Z,0.00
2019-02-14T02:03:00.179Z,-0.10
2019-02-14T02:05:30.718Z,-0.10
2019-02-14T02:08:00.207Z,-0.20
2019-02-14T02:10:30.019Z,-0.40
2019-02-14T02:13:00.083Z,-0.50
2019-02-14T02:15:29.962Z,-0.50
2019-02-14T02:17:59.763Z,-0.50
2019-02-14T02:20:33.354Z,-0.60
2019-02-14T02:23:01.454Z,-0.70
2019-02-14T02:25:30.864Z,-0.70
2019-02-14T02:28:00.669Z,-0.70
2019-02-14T02:30:30.488Z,-0.80
2019-02-14T02:33:00.355Z,-0.80
2019-02-14T02:35:30.828Z,-0.80
2019-02-14T02:38:01.292Z,-0.90
2019-02-14T02:40:31.462Z,-1.00
2019-02-14T02:43:01.540Z,-1.00
2019-02-14T02:45:30.878Z,-1.00
2019-02-14T02:48:01.286Z,-1.00
2019-02-14T02:50:31.656Z,-1.10
2019-02-14T02:53:02.166Z,-1.20
2019-02-14T02:55:32.331Z,-1.10
2019-02-14T02:58:02.092Z,-0.90
2019-02-14T03:00:32.039Z,-0.80
2019-02-14T03:03:02.636Z,-0.80
2019-02-14T03:05:32.444Z,-0.90
2019-02-14T03:08:02.140Z,-0.90
2019-02-14T03:10:32.571Z,-0.80
2019-02-14T03:13:02.084Z,-0.70
2019-02-14T03:15:31.851Z,-0.80
2019-02-14T03:18:01.708Z,-0.80
2019-02-14T03:20:31.527Z,-0.90
2019-02-14T03:23:01.651Z,-1.00
2019-02-14T03:25:31.460Z,-1.10
2019-02-14T03:28:01.263Z,-1.10
2019-02-14T03:30:30.978Z,-1.20
2019-02-14T03:33:00.473Z,-1.30
2019-02-14T03:35:30.443Z,-1.40
2019-02-14T03:38:00.390Z,-1.40
2019-02-14T03:40:30.768Z,-1.30
2019-02-14T03:43:00.612Z,-1.30
2019-02-14T03:45:30.046Z,-1.20
2019-02-14T03:48:00.171Z,-1.20
2019-02-14T03:50:30.257Z,-1.10
2019-02-14T03:53:00.453Z,-1.10
2019-02-14T03:55:30.222Z,-1.20
2019-02-14T03:58:00.762Z,-1.20
2019-02-14T04:00:30.185Z,-1.10
2019-02-14T04:03:00.063Z,-0.90
2019-02-14T04:05:30.223Z,-0.90
2019-02-14T04:08:00.107Z,-0.90
2019-02-14T04:10:29.940Z,-1.00
2019-02-14T04:12:59.454Z,-1.10
2019-02-14T04:15:29.351Z,-1.10
2019-02-14T04:17:59.171Z,-1.20
2019-02-14T04:20:28.554Z,-1.10
2019-02-14T04:22:58.402Z,-1.10
2019-02-14T04:25:28.482Z,-1.20
2019-02-14T04:27:58.962Z,-1.30
2019-02-14T04:30:29.618Z,-1.40
2019-02-14T04:32:59.037Z,-1.50
2019-02-14T04:35:28.526Z,-1.50
2019-02-14T04:37:58.678Z,-1.40
2019-02-14T04:40:33.592Z,-1.40
2019-02-14T04:43:00.104Z,-1.40
2019-02-14T04:45:29.942Z,-1.50
2019-02-14T04:47:59.766Z,-1.50
2019-02-14T04:50:30.161Z,-1.60
2019-02-14T04:52:59.995Z,-1.60
2019-02-14T04:55:30.447Z,-1.60
2019-02-14T04:58:00.641Z,-1.60
2019-02-14T05:00:30.868Z,-1.70
2019-02-14T05:03:00.378Z,-1.70
2019-02-14T05:05:30.290Z,-1.80
2019-02-14T05:08:00.399Z,-1.90
2019-02-14T05:10:30.331Z,-1.90
2019-02-14T05:13:00.271Z,-1.90
2019-02-14T05:15:30.577Z,-2.00
2019-02-14T05:18:00.538Z,-1.90
2019-02-14T05:20:30.992Z,-2.00
2019-02-14T05:23:01.194Z,-1.90
2019-02-14T05:25:30.959Z,-1.80
2019-02-14T05:28:00.105Z,-1.80
2019-02-14T05:30:30.260Z,-1.80
2019-02-14T05:33:00.164Z,-1.80
2019-02-14T05:35:30.370Z,-1.70
2019-02-14T05:37:59.493Z,-1.60
2019-02-14T05:40:30.051Z,-1.60
2019-02-14T05:42:59.925Z,-1.60
2019-02-14T05:45:30.093Z,-1.60
2019-02-14T05:47:59.605Z,-1.60
2019-02-14T05:50:29.380Z,-1.70
2019-02-14T05:52:59.548Z,-1.70
2019-02-14T05:55:30.032Z,-1.60
2019-02-14T05:58:00.230Z,-1.60
2019-02-14T06:00:30.162Z,-1.60
2019-02-14T06:03:00.308Z,-1.70
2019-02-14T06:05:30.515Z,-1.70
2019-02-14T06:08:00.452Z,-1.60
2019-02-14T06:10:30.370Z,-1.60
2019-02-14T06:13:00.449Z,-1.60
2019-02-14T06:15:44.239Z,-1.50
2019-02-14T06:18:14.074Z,-1.40
2019-02-14T06:20:44.213Z,-1.40
2019-02-14T06:23:14.371Z,-1.40
2019-02-14T06:25:46.029Z,-1.50
2019-02-14T06:28:17.795Z,-1.60
2019-02-14T06:30:48.370Z,-1.60
2019-02-14T06:33:18.805Z,-1.60
2019-02-14T06:35:49.307Z,-1.60
2019-02-14T06:38:19.466Z,-1.70
2019-02-14T06:40:50.628Z,-1.70
2019-02-14T06:43:20.830Z,-1.70
2019-02-14T06:45:50.855Z,-1.60
2019-02-14T06:48:21.384Z,-1.50
2019-02-14T06:50:51.291Z,-1.50
2019-02-14T06:53:21.712Z,-1.50
2019-02-14T06:55:51.445Z,-1.40
2019-02-14T06:58:21.326Z,-1.30
2019-02-14T07:00:51.485Z,-1.40
2019-02-14T07:03:21.658Z,-1.30
2019-02-14T07:05:51.800Z,-1.30
2019-02-14T07:08:22.288Z,-1.30
2019-02-14T07:10:52.588Z,-1.40
2019-02-14T07:13:23.253Z,-1.40
2019-02-14T07:15:53.019Z,-1.40
2019-02-14T07:18:23.624Z,-1.30
2019-02-14T07:20:53.943Z,-1.10
2019-02-14T07:23:23.838Z,-1.00
2019-02-14T07:25:53.325Z,-1.00
2019-02-14T07:28:23.136Z,-1.00
2019-02-14T07:30:53.425Z,-1.00
2019-02-14T07:33:25.853Z,-0.90
2019-02-14T07:35:56.359Z,-0.90
2019-02-14T07:38:26.351Z,-0.90
2019-02-14T07:40:56.375Z,-0.90
2019-02-14T07:43:26.881Z,-0.80
2019-02-14T07:45:56.939Z,-0.80
2019-02-14T07:48:27.094Z,-0.70
2019-02-14T07:50:57.536Z,-0.60
2019-02-14T07:53:27.757Z,-0.50
2019-02-14T07:55:57.669Z,-0.30
2019-02-14T07:58:27.468Z,-0.20
2019-02-14T08:00:57.745Z,0.00
2019-02-14T08:03:28.273Z,0.20
2019-02-14T08:05:58.443Z,0.40
2019-02-14T08:08:28.562Z,0.50
2019-02-14T08:10:58.859Z,0.70
2019-02-14T08:13:28.653Z,0.80
2019-02-14T08:15:58.975Z,1.00
2019-02-14T08:18:29.607Z,1.20
2019-02-14T08:21:01.220Z,1.30
2019-02-14T08:23:31.131Z,1.50
2019-02-14T08:26:01.285Z,1.70
2019-02-14T08:28:30.915Z,2.00
2019-02-14T08:31:01.094Z,2.20
2019-02-14T08:33:49.634Z,2.30
2019-02-14T08:36:19.845Z,2.40
2019-02-14T08:38:49.332Z,2.60
2019-02-14T08:41:19.175Z,2.70
2019-02-14T08:43:49.418Z,2.80
2019-02-14T08:46:19.203Z,2.90
2019-02-14T08:48:48.628Z,3.10
2019-02-14T08:51:18.610Z,3.40
2019-02-14T08:53:48.738Z,3.60
2019-02-14T08:56:18.975Z,3.90
2019-02-14T08:58:49.467Z,4.10
2019-02-14T09:01:19.184Z,4.20
2019-02-14T09:03:49.005Z,4.20
2019-02-14T09:06:19.323Z,4.30
2019-02-14T09:08:49.062Z,4.40
2019-02-14T09:11:19.168Z,4.40
2019-02-14T09:13:48.688Z,4.50
2019-02-14T09:16:38.145Z,4.60
2019-02-14T09:19:08.139Z,4.50
2019-02-14T09:21:38.387Z,4.60
2019-02-14T09:24:08.590Z,4.60
2019-02-14T09:26:38.528Z,4.50
2019-02-14T09:29:07.636Z,4.50
2019-02-14T09:31:38.136Z,4.50
2019-02-14T09:34:07.957Z,4.50
2019-02-14T09:36:37.758Z,4.50
2019-02-14T09:39:07.642Z,4.60
2019-02-14T09:41:37.484Z,4.70
2019-02-14T09:44:08.559Z,4.80
2019-02-14T09:46:38.641Z,5.00
2019-02-14T09:50:01.634Z,5.10
2019-02-14T09:52:48.088Z,5.20
2019-02-14T09:55:26.737Z,5.40
2019-02-14T09:58:02.213Z,5.50
2019-02-14T10:05:29.456Z,5.50
2019-02-14T10:08:57.111Z,5.60
2019-02-14T10:11:31.106Z,5.60
2019-02-14T10:14:00.494Z,5.60
2019-02-14T10:16:33.626Z,5.70
2019-02-14T10:19:32.447Z,5.80
2019-02-14T10:22:21.504Z,5.90
2019-02-14T10:26:21.179Z,6.00
2019-02-14T10:27:59.703Z,6.10
2019-02-14T10:30:36.092Z,6.20
2019-02-14T10:33:42.666Z,6.20
2019-02-14T10:36:17.133Z,6.30
2019-02-14T10:38:47.358Z,6.50
2019-02-14T10:41:16.806Z,6.60
2019-02-14T10:43:48.817Z,6.70
2019-02-14T10:46:19.612Z,6.70
2019-02-14T10:49:22.254Z,6.80
2019-02-14T10:51:58.667Z,6.90
2019-02-14T10:54:40.928Z,6.90
2019-02-14T10:57:10.790Z,7.10
2019-02-14T11:00:17.093Z,7.10
2019-02-14T11:03:00.049Z,7.20
2019-02-14T11:06:01.536Z,7.20
2019-02-14T11:08:36.480Z,7.30
2019-02-14T11:11:57.323Z,7.50
2019-02-14T11:17:59.645Z,7.60
2019-02-14T11:20:32.604Z,7.80
2019-02-14T11:23:03.570Z,7.90
2019-02-14T11:25:59.872Z,8.10
2019-02-14T11:28:29.421Z,8.20
2019-02-14T11:31:19.134Z,8.20
2019-02-14T11:33:48.655Z,8.30
2019-02-14T11:36:24.185Z,8.50
2019-02-14T11:38:54.364Z,8.50
2019-02-14T11:41:26.644Z,8.60
2019-02-14T11:44:07.346Z,8.70
2019-02-14T11:46:38.112Z,8.90
2019-02-14T11:49:38.273Z,8.90
2019-02-14T11:52:09.821Z,9.10
2019-02-14T11:54:46.557Z,9.30
2019-02-14T11:57:27.002Z,9.50
2019-02-14T11:59:59.353Z,9.80
2019-02-14T12:03:25.433Z,10.00
2019-02-14T12:05:44.442Z,10.20
2019-02-14T12:08:18.828Z,10.60
2019-02-14T12:14:42.064Z,10.70
2019-02-14T12:17:43.042Z,10.70
2019-02-14T12:20:57.916Z,10.70
2019-02-14T12:23:30.027Z,10.60
2019-02-14T12:26:00.855Z,10.60
2019-02-14T12:28:36.516Z,10.70
2019-02-14T12:31:11.928Z,10.70
2019-02-14T12:34:29.547Z,10.60
2019-02-14T12:37:41.285Z,10.60
2019-02-14T12:40:59.813Z,10.60
2019-02-14T12:44:06.143Z,10.80
2019-02-14T12:46:44.121Z,10.80
2019-02-14T12:49:14.604Z,11.00
2019-02-14T12:53:24.860Z,11.00
2019-02-14T12:59:46.926Z,11.00
2019-02-14T13:02:53.151Z,11.20
2019-02-14T13:12:52.545Z,11.60
2019-02-14T13:19:02.457Z,11.50
2019-02-14T13:22:04.899Z,11.50
2019-02-14T13:24:34.926Z,11.60
2019-02-14T13:27:05.739Z,11.60
2019-02-14T13:29:35.564Z,11.50
2019-02-14T13:32:05.679Z,11.70
2019-02-14T13:34:37.728Z,11.70
2019-02-14T13:37:26.687Z,11.90
2019-02-14T13:39:56.660Z,12.10
2019-02-14T13:42:32.000Z,12.00
2019-02-14T13:45:10.787Z,12.00
2019-02-14T13:48:37.342Z,11.80
2019-02-14T13:52:00.858Z,11.70
2019-02-14T13:54:31.159Z,11.50
2019-02-14T13:57:49.032Z,11.30
2019-02-14T14:01:46.524Z,11.30
2019-02-14T14:04:32.498Z,11.30
2019-02-14T14:10:28.086Z,10.90
2019-02-14T14:13:07.384Z,10.60
2019-02-14T14:15:46.248Z,10.40
2019-02-14T14:18:17.887Z,10.30
2019-02-14T14:20:50.713Z,10.20
2019-02-14T14:24:53.377Z,10.00
2019-02-14T14:27:00.448Z,9.70
2019-02-14T14:29:31.068Z,9.50
2019-02-14T14:32:01.707Z,9.20
2019-02-14T14:34:32.067Z,8.90
2019-02-14T14:37:02.239Z,8.70
2019-02-14T14:39:32.804Z,8.40
2019-02-14T14:42:04.834Z,8.20
2019-02-14T14:44:42.023Z,8.10
2019-02-14T14:47:19.837Z,8.00
2019-02-14T14:49:49.288Z,7.80
2019-02-14T14:52:18.458Z,7.70
2019-02-14T14:54:48.389Z,7.60
2019-02-14T14:57:19.395Z,7.50
2019-02-14T14:59:49.507Z,7.50
2019-02-14T15:02:20.895Z,7.50
2019-02-14T15:05:01.564Z,7.20
2019-02-14T15:11:33.091Z,6.90
2019-02-14T15:14:03.343Z,6.70
2019-02-14T15:28:19.286Z,6.30
2019-02-14T15:32:05.797Z,6.30
2019-02-14T15:45:38.933Z,6.20
2019-02-14T15:48:09.580Z,6.10
2019-02-14T15:50:39.720Z,6.00
2019-02-14T15:53:09.609Z,5.80
2019-02-14T15:55:41.648Z,5.60
2019-02-14T15:58:11.799Z,5.50
2019-02-14T16:00:42.035Z,5.40
2019-02-14T16:04:07.317Z,5.30
2019-02-14T16:07:18.344Z,5.20
2019-02-14T16:09:50.739Z,5.20
2019-02-14T16:13:05.392Z,5.30
2019-02-14T16:15:33.735Z,5.30
2019-02-14T16:18:12.687Z,5.20
2019-02-14T16:21:20.707Z,5.10
2019-02-14T16:23:52.924Z,5.00
2019-02-14T16:26:31.909Z,4.80
2019-02-14T16:29:31.989Z,4.70
2019-02-14T16:31:49.978Z,4.50
2019-02-14T16:34:20.697Z,4.30
2019-02-14T16:37:23.215Z,4.20
2019-02-14T16:40:15.569Z,4.10
2019-02-14T16:43:08.924Z,3.90
2019-02-14T16:45:41.448Z,3.80
2019-02-14T16:48:57.465Z,3.70
2019-02-14T16:51:46.432Z,3.70
2019-02-14T16:55:12.065Z,3.60
2019-02-14T16:57:44.457Z,3.60
2019-02-14T17:00:37.937Z,3.80
2019-02-14T17:03:26.276Z,3.70
2019-02-14T17:06:16.951Z,3.60
2019-02-14T17:12:22.135Z,3.60
2019-02-14T17:14:52.860Z,3.60
2019-02-14T17:17:49.232Z,3.70
2019-02-14T17:20:22.136Z,3.70
2019-02-14T17:22:52.393Z,3.50
2019-02-14T17:25:22.827Z,3.50
2019-02-14T17:27:52.168Z,3.40
2019-02-14T17:31:39.816Z,3.50
2019-02-14T17:34:10.896Z,3.50
2019-02-14T17:36:42.109Z,3.40
2019-02-14T17:39:22.472Z,3.40
2019-02-14T17:41:53.298Z,3.40
2019-02-14T17:44:23.509Z,3.50
2019-02-14T17:46:53.249Z,3.60
2019-02-14T17:49:23.098Z,3.60
2019-02-14T17:51:53.379Z,3.50
2019-02-14T17:54:23.249Z,3.30
2019-02-14T17:56:53.894Z,3.20
2019-02-14T17:59:43.152Z,3.20
2019-02-14T18:05:23.010Z,3.60
2019-02-14T18:07:52.815Z,4.20
2019-02-14T18:10:23.538Z,4.50
2019-02-14T18:12:53.592Z,4.50
2019-02-14T18:15:23.477Z,4.50
2019-02-14T18:17:54.465Z,4.30
2019-02-14T18:20:25.277Z,4.20
2019-02-14T18:22:55.954Z,4.10
2019-02-14T18:25:48.400Z,4.20
2019-02-14T18:28:32.491Z,4.20
2019-02-14T18:31:04.439Z,4.40
2019-02-14T18:33:34.845Z,4.30
2019-02-14T18:36:04.640Z,4.40
2019-02-14T18:38:34.115Z,4.50
2019-02-14T18:41:04.382Z,4.50
2019-02-14T18:43:34.219Z,4.70
2019-02-14T18:46:08.433Z,4.90
2019-02-14T18:48:41.740Z,5.10
2019-02-14T18:51:15.297Z,5.10
2019-02-14T18:54:35.675Z,5.00
2019-02-14T18:57:30.863Z,4.80
2019-02-14T19:00:12.002Z,4.70
2019-02-14T19:02:43.566Z,4.60
2019-02-14T19:05:13.478Z,4.40
2019-02-14T19:07:47.198Z,4.20
2019-02-14T19:10:20.389Z,4.00
2019-02-14T19:12:50.824Z,3.90
2019-02-14T19:15:21.655Z,3.80
2019-02-14T19:17:51.132Z,3.70
2019-02-14T19:20:36.968Z,3.40
2019-02-14T19:23:24.071Z,3.20
2019-02-14T19:25:51.571Z,3.00
2019-02-14T19:28:23.454Z,2.90
2019-02-14T19:30:53.476Z,2.70
2019-02-14T19:33:25.604Z,2.70
2019-02-14T19:35:55.566Z,2.80
2019-02-14T19:38:25.925Z,2.90
2019-02-14T19:40:55.829Z,3.40
2019-02-14T19:43:26.037Z,3.70
2019-02-14T19:45:56.350Z,4.40
2019-02-14T19:48:40.005Z,5.30
2019-02-14T19:51:09.492Z,5.70
2019-02-14T19:53:39.531Z,6.00
2019-02-14T19:56:10.459Z,5.90
2019-02-14T19:58:43.267Z,5.70
2019-02-14T20:01:13.147Z,5.40
2019-02-14T20:03:43.334Z,5.40
2019-02-14T20:06:13.384Z,5.60
2019-02-14T20:08:44.287Z,5.80
2019-02-14T20:11:14.840Z,6.20
2019-02-14T20:13:49.551Z,6.50
2019-02-14T20:16:16.128Z,6.60
2019-02-14T20:18:46.466Z,6.60
2019-02-14T20:21:16.678Z,7.00
2019-02-14T20:23:47.308Z,6.80
2019-02-14T20:26:16.767Z,6.70
2019-02-14T20:28:46.625Z,6.70
2019-02-14T20:31:16.217Z,6.70
2019-02-14T20:33:46.493Z,6.40
2019-02-14T20:36:17.937Z,6.40
2019-02-14T20:38:47.223Z,6.20
2019-02-14T20:41:17.421Z,6.10
2019-02-14T20:43:47.691Z,5.90
2019-02-14T20:46:18.270Z,6.00
2019-02-14T20:48:48.230Z,5.90
2019-02-14T20:51:18.457Z,5.90
2019-02-14T20:53:48.444Z,6.40
2019-02-14T20:56:19.164Z,6.70
2019-02-14T20:58:49.419Z,6.50
2019-02-14T21:01:19.491Z,6.50
2019-02-14T21:03:49.016Z,6.50
2019-02-14T21:06:18.501Z,6.50
2019-02-14T21:08:48.649Z,6.60
2019-02-14T21:11:19.543Z,6.50
2019-02-14T21:13:49.803Z,6.40
2019-02-14T21:16:19.849Z,6.20
2019-02-14T21:18:50.046Z,5.90
2019-02-14T21:21:20.375Z,5.70
2019-02-14T21:23:50.035Z,5.70
2019-02-14T21:26:20.295Z,5.80
2019-02-14T21:28:50.678Z,5.70
2019-02-14T21:31:20.352Z,6.00
2019-02-14T21:33:50.235Z,6.30
2019-02-14T21:36:21.531Z,6.50
2019-02-14T21:38:51.806Z,6.70
2019-02-14T21:41:22.026Z,6.50
2019-02-14T21:43:54.401Z,6.20
2019-02-14T21:46:24.487Z,5.90
2019-02-14T21:48:54.639Z,5.70
2019-02-14T21:51:24.955Z,5.50
2019-02-14T21:53:54.869Z,5.30
2019-02-14T21:56:24.490Z,5.00
2019-02-14T21:58:54.806Z,4.70
2019-02-14T22:01:28.207Z,4.50
2019-02-14T22:03:58.249Z,4.20
2019-02-14T22:06:30.401Z,4.10
2019-02-14T22:09:00.697Z,4.20
2019-02-14T22:11:34.365Z,4.80
2019-02-14T22:14:02.578Z,5.50
2019-02-14T22:16:32.778Z,5.90
2019-02-14T22:19:02.770Z,6.10
2019-02-14T22:21:33.049Z,6.00
2019-02-14T22:24:03.144Z,5.90
2019-02-14T22:26:33.714Z,5.80
2019-02-14T22:29:04.422Z,5.60
2019-02-14T22:31:35.245Z,5.40
2019-02-14T22:34:05.228Z,5.10
2019-02-14T22:36:35.492Z,4.90
2019-02-14T22:39:06.241Z,4.60
2019-02-14T22:41:36.487Z,4.30
2019-02-14T22:44:06.381Z,3.90
2019-02-14T22:46:36.263Z,3.60
2019-02-14T22:49:06.444Z,3.40
2019-02-14T22:51:36.605Z,3.10
2019-02-14T22:54:06.127Z,2.90
2019-02-14T22:56:36.373Z,2.80
2019-02-14T22:59:06.919Z,2.70
2019-02-14T23:01:36.782Z,3.00
2019-02-14T23:04:06.603Z,3.10
2019-02-14T23:06:36.796Z,3.10
2019-02-14T23:09:08.062Z,3.00
2019-02-14T23:11:38.564Z,2.80
2019-02-14T23:14:08.480Z,2.70
2019-02-14T23:16:38.429Z,2.50
2019-02-14T23:19:08.694Z,2.50
2019-02-14T23:21:38.558Z,2.40
2019-02-14T23:24:08.378Z,2.30
2019-02-14T23:26:38.560Z,2.30
2019-02-14T23:29:08.361Z,2.30
2019-02-14T23:31:38.557Z,2.40
2019-02-14T23:34:09.192Z,2.30
2019-02-14T23:36:39.013Z,2.20
2019-02-14T23:39:08.180Z,2.20
2019-02-14T23:41:38.080Z,2.10
2019-02-14T23:44:08.498Z,2.10
2019-02-14T23:46:38.713Z,2.00
2019-02-14T23:49:08.883Z,2.10
2019-02-14T23:51:39.440Z,2.00
2019-02-14T23:54:09.153Z,2.20
2019-02-14T23:56:39.322Z,2.20
2019-02-14T23:59:09.540Z,2.20
